sensor_id;sensor_type;location;lat;lon;timestamp;temperature;humidity
53264;DHT22;39153;52.680;6.172;2023-02-05T00:00:18;5.70;99.90
53264;DHT22;39153;52.680;6.172;2023-02-05T00:02:43;5.70;99.90
53264;DHT22;39153;52.680;6.172;2023-02-05T00:05:09;5.70;99.90
53264;DHT22;39153;52.680;6.172;2023-02-05T00:07:35;5.70;99.90
53264;DHT22;39153;52.680;6.172;2023-02-05T00:10:01;5.90;99.90
53264;DHT22;39153;52.680;6.172;2023-02-05T00:12:27;5.70;99.90
53264;DHT22;39153;52.680;6.172;2023-02-05T00:14:52;5.70;99.90
53264;DHT22;39153;52.680;6.172;2023-02-05T00:17:18;5.70;99.90
53264;DHT22;39153;52.680;6.172;2023-02-05T00:19:44;5.90;99.90
53264;DHT22;39153;52.680;6.172;2023-02-05T00:22:10;5.70;99.90
53264;DHT22;39153;52.680;6.172;2023-02-05T00:24:35;5.60;99.90
53264;DHT22;39153;52.680;6.172;2023-02-05T00:27:01;5.60;99.90
53264;DHT22;39153;52.680;6.172;2023-02-05T00:29:27;5.60;99.90
53264;DHT22;39153;52.680;6.172;2023-02-05T00:31:53;5.60;99.90
53264;DHT22;39153;52.680;6.172;2023-02-05T00:34:18;5.70;99.90
53264;DHT22;39153;52.680;6.172;2023-02-05T00:36:44;5.60;99.90
53264;DHT22;39153;52.680;6.172;2023-02-05T00:39:10;5.80;99.90
53264;DHT22;39153;52.680;6.172;2023-02-05T00:41:37;5.60;99.90
53264;DHT22;39153;52.680;6.172;2023-02-05T00:44:03;5.80;99.90
53264;DHT22;39153;52.680;6.172;2023-02-05T00:46:29;5.70;99.90
53264;DHT22;39153;52.680;6.172;2023-02-05T00:48:55;5.80;99.90
53264;DHT22;39153;52.680;6.172;2023-02-05T00:51:21;5.80;99.90
53264;DHT22;39153;52.680;6.172;2023-02-05T00:53:46;5.80;99.90
53264;DHT22;39153;52.680;6.172;2023-02-05T00:56:12;5.80;99.90
53264;DHT22;39153;52.680;6.172;2023-02-05T00:58:38;5.90;99.90
53264;DHT22;39153;52.680;6.172;2023-02-05T01:01:03;5.80;99.90
53264;DHT22;39153;52.680;6.172;2023-02-05T01:03:29;5.80;99.90
53264;DHT22;39153;52.680;6.172;2023-02-05T01:05:55;6.00;99.90
53264;DHT22;39153;52.680;6.172;2023-02-05T01:08:22;5.90;99.90
53264;DHT22;39153;52.680;6.172;2023-02-05T01:10:49;5.80;99.90
53264;DHT22;39153;52.680;6.172;2023-02-05T01:13:16;5.90;99.90
53264;DHT22;39153;52.680;6.172;2023-02-05T01:15:42;5.80;99.90
53264;DHT22;39153;52.680;6.172;2023-02-05T01:18:09;5.90;99.90
53264;DHT22;39153;52.680;6.172;2023-02-05T01:20:39;5.90;99.90
53264;DHT22;39153;52.680;6.172;2023-02-05T01:23:05;6.00;99.90
53264;DHT22;39153;52.680;6.172;2023-02-05T01:25:31;5.90;99.90
53264;DHT22;39153;52.680;6.172;2023-02-05T01:27:57;6.10;99.90
53264;DHT22;39153;52.680;6.172;2023-02-05T01:30:22;5.90;99.90
53264;DHT22;39153;52.680;6.172;2023-02-05T01:32:48;6.00;99.90
53264;DHT22;39153;52.680;6.172;2023-02-05T01:35:14;5.90;99.90
53264;DHT22;39153;52.680;6.172;2023-02-05T01:37:39;6.00;99.90
53264;DHT22;39153;52.680;6.172;2023-02-05T01:40:06;5.90;99.90
53264;DHT22;39153;52.680;6.172;2023-02-05T01:42:32;6.00;99.90
53264;DHT22;39153;52.680;6.172;2023-02-05T01:48:01;5.90;99.90
53264;DHT22;39153;52.680;6.172;2023-02-05T01:50:31;5.90;99.90
53264;DHT22;39153;52.680;6.172;2023-02-05T01:53:02;6.10;99.90
53264;DHT22;39153;52.680;6.172;2023-02-05T01:55:28;5.90;99.90
53264;DHT22;39153;52.680;6.172;2023-02-05T01:57:55;6.00;99.90
53264;DHT22;39153;52.680;6.172;2023-02-05T02:00:22;5.90;99.90
53264;DHT22;39153;52.680;6.172;2023-02-05T02:02:48;6.00;99.90
53264;DHT22;39153;52.680;6.172;2023-02-05T02:05:15;5.90;99.90
53264;DHT22;39153;52.680;6.172;2023-02-05T02:07:41;5.90;99.90
53264;DHT22;39153;52.680;6.172;2023-02-05T02:10:09;6.10;99.90
53264;DHT22;39153;52.680;6.172;2023-02-05T02:12:37;5.90;99.90
53264;DHT22;39153;52.680;6.172;2023-02-05T02:15:11;6.10;99.90
53264;DHT22;39153;52.680;6.172;2023-02-05T02:17:42;5.90;99.90
53264;DHT22;39153;52.680;6.172;2023-02-05T02:20:21;5.90;99.90
53264;DHT22;39153;52.680;6.172;2023-02-05T02:28:35;6.20;99.90
53264;DHT22;39153;52.680;6.172;2023-02-05T02:31:33;6.30;99.90
53264;DHT22;39153;52.680;6.172;2023-02-05T02:34:03;6.00;99.90
53264;DHT22;39153;52.680;6.172;2023-02-05T02:36:44;6.10;99.90
53264;DHT22;39153;52.680;6.172;2023-02-05T02:39:31;6.00;99.90
53264;DHT22;39153;52.680;6.172;2023-02-05T02:45:00;6.40;99.90
53264;DHT22;39153;52.680;6.172;2023-02-05T02:47:54;6.20;99.90
53264;DHT22;39153;52.680;6.172;2023-02-05T02:50:27;6.60;99.90
53264;DHT22;39153;52.680;6.172;2023-02-05T02:53:00;6.20;99.90
53264;DHT22;39153;52.680;6.172;2023-02-05T02:55:28;6.30;99.90
53264;DHT22;39153;52.680;6.172;2023-02-05T02:57:56;6.50;99.90
53264;DHT22;39153;52.680;6.172;2023-02-05T03:00:25;6.60;99.90
53264;DHT22;39153;52.680;6.172;2023-02-05T03:02:54;6.60;99.90
53264;DHT22;39153;52.680;6.172;2023-02-05T03:05:22;6.30;99.90
53264;DHT22;39153;52.680;6.172;2023-02-05T03:07:53;6.50;99.90
53264;DHT22;39153;52.680;6.172;2023-02-05T03:10:41;6.50;99.90
53264;DHT22;39153;52.680;6.172;2023-02-05T03:13:09;6.20;99.90
53264;DHT22;39153;52.680;6.172;2023-02-05T03:15:39;6.50;99.90
53264;DHT22;39153;52.680;6.172;2023-02-05T03:18:05;6.60;99.90
53264;DHT22;39153;52.680;6.172;2023-02-05T03:20:38;6.70;99.90
53264;DHT22;39153;52.680;6.172;2023-02-05T03:23:06;6.50;99.90
53264;DHT22;39153;52.680;6.172;2023-02-05T03:25:32;6.20;99.90
53264;DHT22;39153;52.680;6.172;2023-02-05T03:27:57;6.20;99.90
53264;DHT22;39153;52.680;6.172;2023-02-05T03:30:29;6.30;99.90
53264;DHT22;39153;52.680;6.172;2023-02-05T03:33:24;6.40;99.90
53264;DHT22;39153;52.680;6.172;2023-02-05T03:41:22;6.50;99.90
53264;DHT22;39153;52.680;6.172;2023-02-05T03:47:18;6.20;99.90
53264;DHT22;39153;52.680;6.172;2023-02-05T03:52:34;6.30;99.90
53264;DHT22;39153;52.680;6.172;2023-02-05T03:55:14;6.60;99.90
53264;DHT22;39153;52.680;6.172;2023-02-05T04:00:49;6.60;99.90
53264;DHT22;39153;52.680;6.172;2023-02-05T04:03:15;6.70;99.90
53264;DHT22;39153;52.680;6.172;2023-02-05T04:05:41;6.60;99.90
53264;DHT22;39153;52.680;6.172;2023-02-05T04:08:07;6.30;99.90
53264;DHT22;39153;52.680;6.172;2023-02-05T04:10:33;6.30;99.90
53264;DHT22;39153;52.680;6.172;2023-02-05T04:12:58;6.70;99.90
53264;DHT22;39153;52.680;6.172;2023-02-05T04:15:24;6.40;99.90
53264;DHT22;39153;52.680;6.172;2023-02-05T04:17:50;6.40;99.90
53264;DHT22;39153;52.680;6.172;2023-02-05T04:20:16;6.70;99.90
53264;DHT22;39153;52.680;6.172;2023-02-05T04:22:42;6.20;99.90
53264;DHT22;39153;52.680;6.172;2023-02-05T04:25:07;6.30;99.90
53264;DHT22;39153;52.680;6.172;2023-02-05T04:27:33;6.70;99.90
53264;DHT22;39153;52.680;6.172;2023-02-05T04:29:59;6.60;99.90
53264;DHT22;39153;52.680;6.172;2023-02-05T04:32:25;7.00;99.90
53264;DHT22;39153;52.680;6.172;2023-02-05T04:34:51;6.60;99.90
53264;DHT22;39153;52.680;6.172;2023-02-05T04:37:16;6.80;99.90
53264;DHT22;39153;52.680;6.172;2023-02-05T04:39:42;6.50;99.90
53264;DHT22;39153;52.680;6.172;2023-02-05T04:42:07;6.60;99.90
53264;DHT22;39153;52.680;6.172;2023-02-05T04:44:33;6.70;99.90
53264;DHT22;39153;52.680;6.172;2023-02-05T04:46:59;6.30;99.90
53264;DHT22;39153;52.680;6.172;2023-02-05T04:49:24;6.40;99.90
53264;DHT22;39153;52.680;6.172;2023-02-05T04:51:50;6.80;99.90
53264;DHT22;39153;52.680;6.172;2023-02-05T04:54:16;6.80;99.90
53264;DHT22;39153;52.680;6.172;2023-02-05T04:56:41;6.90;99.90
53264;DHT22;39153;52.680;6.172;2023-02-05T04:59:07;6.80;99.90
53264;DHT22;39153;52.680;6.172;2023-02-05T05:01:33;6.90;99.90
53264;DHT22;39153;52.680;6.172;2023-02-05T05:03:59;6.40;99.90
53264;DHT22;39153;52.680;6.172;2023-02-05T05:06:24;6.30;99.90
53264;DHT22;39153;52.680;6.172;2023-02-05T05:08:50;6.80;99.90
53264;DHT22;39153;52.680;6.172;2023-02-05T05:11:17;6.50;99.90
53264;DHT22;39153;52.680;6.172;2023-02-05T05:13:44;6.80;99.90
53264;DHT22;39153;52.680;6.172;2023-02-05T05:16:10;6.30;99.90
53264;DHT22;39153;52.680;6.172;2023-02-05T05:18:38;6.90;99.90
53264;DHT22;39153;52.680;6.172;2023-02-05T05:21:04;6.30;99.90
53264;DHT22;39153;52.680;6.172;2023-02-05T05:23:30;6.90;99.90
53264;DHT22;39153;52.680;6.172;2023-02-05T05:25:56;6.80;99.90
53264;DHT22;39153;52.680;6.172;2023-02-05T05:28:22;6.50;99.90
53264;DHT22;39153;52.680;6.172;2023-02-05T05:30:48;6.80;99.90
53264;DHT22;39153;52.680;6.172;2023-02-05T05:33:14;6.30;99.90
53264;DHT22;39153;52.680;6.172;2023-02-05T05:35:40;6.90;99.90
53264;DHT22;39153;52.680;6.172;2023-02-05T05:38:06;6.80;99.90
53264;DHT22;39153;52.680;6.172;2023-02-05T05:40:32;6.80;99.90
53264;DHT22;39153;52.680;6.172;2023-02-05T05:43:18;6.60;99.90
53264;DHT22;39153;52.680;6.172;2023-02-05T05:46:03;6.30;99.90
53264;DHT22;39153;52.680;6.172;2023-02-05T05:48:29;6.70;99.90
53264;DHT22;39153;52.680;6.172;2023-02-05T05:50:55;6.30;99.90
53264;DHT22;39153;52.680;6.172;2023-02-05T05:53:21;6.40;99.90
53264;DHT22;39153;52.680;6.172;2023-02-05T05:55:47;6.00;99.90
53264;DHT22;39153;52.680;6.172;2023-02-05T05:58:13;6.40;99.90
53264;DHT22;39153;52.680;6.172;2023-02-05T06:00:40;6.10;99.90
53264;DHT22;39153;52.680;6.172;2023-02-05T06:03:06;6.00;99.90
53264;DHT22;39153;52.680;6.172;2023-02-05T06:05:32;5.80;99.90
53264;DHT22;39153;52.680;6.172;2023-02-05T06:07:58;6.20;99.90
53264;DHT22;39153;52.680;6.172;2023-02-05T06:10:24;6.00;99.90
53264;DHT22;39153;52.680;6.172;2023-02-05T06:12:50;5.80;99.90
53264;DHT22;39153;52.680;6.172;2023-02-05T06:15:18;5.90;99.90
53264;DHT22;39153;52.680;6.172;2023-02-05T06:17:44;5.90;99.90
53264;DHT22;39153;52.680;6.172;2023-02-05T06:20:11;5.70;99.90
53264;DHT22;39153;52.680;6.172;2023-02-05T06:22:37;5.60;99.90
53264;DHT22;39153;52.680;6.172;2023-02-05T06:25:03;5.90;99.90
53264;DHT22;39153;52.680;6.172;2023-02-05T06:27:29;5.80;99.90
53264;DHT22;39153;52.680;6.172;2023-02-05T06:29:55;5.60;99.90
53264;DHT22;39153;52.680;6.172;2023-02-05T06:32:21;5.80;99.90
53264;DHT22;39153;52.680;6.172;2023-02-05T06:34:47;5.60;99.90
53264;DHT22;39153;52.680;6.172;2023-02-05T06:37:12;5.70;99.90
53264;DHT22;39153;52.680;6.172;2023-02-05T06:39:38;6.00;99.90
53264;DHT22;39153;52.680;6.172;2023-02-05T06:42:04;5.50;99.90
53264;DHT22;39153;52.680;6.172;2023-02-05T06:44:31;5.80;99.90
53264;DHT22;39153;52.680;6.172;2023-02-05T06:46:57;5.90;99.90
53264;DHT22;39153;52.680;6.172;2023-02-05T06:49:23;5.80;99.90
53264;DHT22;39153;52.680;6.172;2023-02-05T06:51:48;5.90;99.90
53264;DHT22;39153;52.680;6.172;2023-02-05T06:54:14;5.50;99.90
53264;DHT22;39153;52.680;6.172;2023-02-05T06:56:40;5.40;99.90
53264;DHT22;39153;52.680;6.172;2023-02-05T06:59:05;5.90;99.90
53264;DHT22;39153;52.680;6.172;2023-02-05T07:01:31;5.80;99.90
53264;DHT22;39153;52.680;6.172;2023-02-05T07:03:57;5.40;99.90
53264;DHT22;39153;52.680;6.172;2023-02-05T07:06:23;5.80;99.90
53264;DHT22;39153;52.680;6.172;2023-02-05T07:08:49;5.60;99.90
53264;DHT22;39153;52.680;6.172;2023-02-05T07:11:16;5.60;99.90
53264;DHT22;39153;52.680;6.172;2023-02-05T07:13:41;5.40;99.90
53264;DHT22;39153;52.680;6.172;2023-02-05T07:16:07;5.80;99.90
53264;DHT22;39153;52.680;6.172;2023-02-05T07:18:33;6.10;99.90
53264;DHT22;39153;52.680;6.172;2023-02-05T07:21:02;5.90;99.90
53264;DHT22;39153;52.680;6.172;2023-02-05T07:23:28;5.50;99.90
53264;DHT22;39153;52.680;6.172;2023-02-05T07:25:54;5.80;99.90
53264;DHT22;39153;52.680;6.172;2023-02-05T07:28:20;5.90;99.90
53264;DHT22;39153;52.680;6.172;2023-02-05T07:30:45;5.90;99.90
53264;DHT22;39153;52.680;6.172;2023-02-05T07:33:12;5.60;99.90
53264;DHT22;39153;52.680;6.172;2023-02-05T07:35:38;5.80;99.90
53264;DHT22;39153;52.680;6.172;2023-02-05T07:38:04;5.80;99.90
53264;DHT22;39153;52.680;6.172;2023-02-05T07:40:30;6.00;99.90
53264;DHT22;39153;52.680;6.172;2023-02-05T07:42:56;5.80;99.90
53264;DHT22;39153;52.680;6.172;2023-02-05T07:45:22;6.00;99.90
53264;DHT22;39153;52.680;6.172;2023-02-05T07:47:47;6.00;99.90
53264;DHT22;39153;52.680;6.172;2023-02-05T07:50:16;5.80;99.90
53264;DHT22;39153;52.680;6.172;2023-02-05T07:52:42;6.10;99.90
53264;DHT22;39153;52.680;6.172;2023-02-05T07:55:08;5.90;99.90
53264;DHT22;39153;52.680;6.172;2023-02-05T07:57:34;6.00;99.90
53264;DHT22;39153;52.680;6.172;2023-02-05T08:00:00;5.90;99.90
53264;DHT22;39153;52.680;6.172;2023-02-05T08:02:25;6.10;99.90
53264;DHT22;39153;52.680;6.172;2023-02-05T08:04:51;5.90;99.90
53264;DHT22;39153;52.680;6.172;2023-02-05T08:07:17;6.20;99.90
53264;DHT22;39153;52.680;6.172;2023-02-05T08:09:42;6.00;99.90
53264;DHT22;39153;52.680;6.172;2023-02-05T08:12:08;6.30;99.90
53264;DHT22;39153;52.680;6.172;2023-02-05T08:14:34;6.20;99.90
53264;DHT22;39153;52.680;6.172;2023-02-05T08:17:00;6.00;99.90
53264;DHT22;39153;52.680;6.172;2023-02-05T08:19:26;6.10;99.90
53264;DHT22;39153;52.680;6.172;2023-02-05T08:21:51;6.00;99.90
53264;DHT22;39153;52.680;6.172;2023-02-05T08:24:18;6.20;99.90
53264;DHT22;39153;52.680;6.172;2023-02-05T08:26:43;6.00;99.90
53264;DHT22;39153;52.680;6.172;2023-02-05T08:29:10;6.20;99.90
53264;DHT22;39153;52.680;6.172;2023-02-05T08:31:36;6.20;99.90
53264;DHT22;39153;52.680;6.172;2023-02-05T08:34:02;6.10;99.90
53264;DHT22;39153;52.680;6.172;2023-02-05T08:36:28;6.20;99.90
53264;DHT22;39153;52.680;6.172;2023-02-05T08:38:54;6.20;99.90
53264;DHT22;39153;52.680;6.172;2023-02-05T08:41:20;6.30;99.90
53264;DHT22;39153;52.680;6.172;2023-02-05T08:43:50;6.30;99.90
53264;DHT22;39153;52.680;6.172;2023-02-05T08:46:19;6.30;99.90
53264;DHT22;39153;52.680;6.172;2023-02-05T08:48:47;6.40;99.90
53264;DHT22;39153;52.680;6.172;2023-02-05T08:51:14;6.40;99.90
53264;DHT22;39153;52.680;6.172;2023-02-05T08:53:40;6.40;99.90
53264;DHT22;39153;52.680;6.172;2023-02-05T08:56:07;6.50;99.90
53264;DHT22;39153;52.680;6.172;2023-02-05T08:58:36;6.50;99.90
53264;DHT22;39153;52.680;6.172;2023-02-05T09:01:07;6.50;99.90
53264;DHT22;39153;52.680;6.172;2023-02-05T09:03:33;6.60;99.90
53264;DHT22;39153;52.680;6.172;2023-02-05T09:06:00;6.60;99.90
53264;DHT22;39153;52.680;6.172;2023-02-05T09:08:26;6.60;99.90
53264;DHT22;39153;52.680;6.172;2023-02-05T09:10:52;6.60;99.90
53264;DHT22;39153;52.680;6.172;2023-02-05T09:13:18;6.70;99.90
53264;DHT22;39153;52.680;6.172;2023-02-05T09:15:46;6.70;99.90
53264;DHT22;39153;52.680;6.172;2023-02-05T09:18:12;6.70;99.90
53264;DHT22;39153;52.680;6.172;2023-02-05T09:20:46;6.80;99.90
53264;DHT22;39153;52.680;6.172;2023-02-05T09:23:16;6.80;99.90
53264;DHT22;39153;52.680;6.172;2023-02-05T09:25:42;6.80;99.90
53264;DHT22;39153;52.680;6.172;2023-02-05T09:28:10;6.80;99.90
53264;DHT22;39153;52.680;6.172;2023-02-05T09:30:37;6.90;99.90
53264;DHT22;39153;52.680;6.172;2023-02-05T09:33:03;6.90;99.90
53264;DHT22;39153;52.680;6.172;2023-02-05T09:35:32;7.00;99.90
53264;DHT22;39153;52.680;6.172;2023-02-05T09:37:59;7.20;99.90
53264;DHT22;39153;52.680;6.172;2023-02-05T09:40:33;7.00;99.90
53264;DHT22;39153;52.680;6.172;2023-02-05T09:45:54;7.00;99.90
53264;DHT22;39153;52.680;6.172;2023-02-05T09:48:44;7.00;99.90
53264;DHT22;39153;52.680;6.172;2023-02-05T09:51:24;7.10;99.90
53264;DHT22;39153;52.680;6.172;2023-02-05T09:53:57;7.10;99.90
53264;DHT22;39153;52.680;6.172;2023-02-05T09:56:25;7.10;99.90
53264;DHT22;39153;52.680;6.172;2023-02-05T09:58:53;7.10;99.90
53264;DHT22;39153;52.680;6.172;2023-02-05T10:01:28;7.30;99.90
53264;DHT22;39153;52.680;6.172;2023-02-05T10:04:00;7.20;99.90
53264;DHT22;39153;52.680;6.172;2023-02-05T10:09:48;7.40;99.90
53264;DHT22;39153;52.680;6.172;2023-02-05T10:12:21;7.40;99.90
53264;DHT22;39153;52.680;6.172;2023-02-05T10:18:08;7.50;99.90
53264;DHT22;39153;52.680;6.172;2023-02-05T10:26:45;7.30;99.90
53264;DHT22;39153;52.680;6.172;2023-02-05T10:32:06;7.30;99.90
53264;DHT22;39153;52.680;6.172;2023-02-05T10:34:48;7.30;99.90
53264;DHT22;39153;52.680;6.172;2023-02-05T10:37:19;7.20;99.90
53264;DHT22;39153;52.680;6.172;2023-02-05T10:39:46;7.10;99.90
53264;DHT22;39153;52.680;6.172;2023-02-05T10:42:32;7.00;99.90
53264;DHT22;39153;52.680;6.172;2023-02-05T10:45:13;7.10;99.90
53264;DHT22;39153;52.680;6.172;2023-02-05T10:53:13;7.40;99.90
53264;DHT22;39153;52.680;6.172;2023-02-05T10:55:41;7.50;99.90
53264;DHT22;39153;52.680;6.172;2023-02-05T11:00:49;7.50;99.90
53264;DHT22;39153;52.680;6.172;2023-02-05T11:03:16;7.50;99.90
53264;DHT22;39153;52.680;6.172;2023-02-05T11:05:43;7.60;99.90
53264;DHT22;39153;52.680;6.172;2023-02-05T11:08:39;7.60;99.90
53264;DHT22;39153;52.680;6.172;2023-02-05T11:11:06;7.60;99.90
53264;DHT22;39153;52.680;6.172;2023-02-05T11:13:38;7.70;99.90
53264;DHT22;39153;52.680;6.172;2023-02-05T11:16:07;7.90;99.90
53264;DHT22;39153;52.680;6.172;2023-02-05T11:18:44;7.90;99.90
53264;DHT22;39153;52.680;6.172;2023-02-05T11:21:11;7.90;99.90
53264;DHT22;39153;52.680;6.172;2023-02-05T11:23:38;7.90;99.90
53264;DHT22;39153;52.680;6.172;2023-02-05T11:26:21;7.80;99.90
53264;DHT22;39153;52.680;6.172;2023-02-05T11:28:48;7.80;99.90
53264;DHT22;39153;52.680;6.172;2023-02-05T11:31:24;7.80;99.90
53264;DHT22;39153;52.680;6.172;2023-02-05T11:33:50;7.70;99.90
53264;DHT22;39153;52.680;6.172;2023-02-05T11:36:23;7.70;99.90
53264;DHT22;39153;52.680;6.172;2023-02-05T11:38:56;7.70;99.90
53264;DHT22;39153;52.680;6.172;2023-02-05T11:43:57;8.00;99.90
53264;DHT22;39153;52.680;6.172;2023-02-05T11:46:25;8.20;99.90
53264;DHT22;39153;52.680;6.172;2023-02-05T11:49:03;8.60;99.90
53264;DHT22;39153;52.680;6.172;2023-02-05T11:51:42;8.90;99.90
53264;DHT22;39153;52.680;6.172;2023-02-05T11:54:14;9.00;99.90
53264;DHT22;39153;52.680;6.172;2023-02-05T11:56:41;9.20;99.90
53264;DHT22;39153;52.680;6.172;2023-02-05T11:59:21;9.30;99.90
53264;DHT22;39153;52.680;6.172;2023-02-05T12:01:47;9.40;99.90
53264;DHT22;39153;52.680;6.172;2023-02-05T12:04:17;9.50;99.90
53264;DHT22;39153;52.680;6.172;2023-02-05T12:06:52;9.00;99.90
53264;DHT22;39153;52.680;6.172;2023-02-05T12:09:24;8.90;99.90
53264;DHT22;39153;52.680;6.172;2023-02-05T12:17:11;9.00;99.90
53264;DHT22;39153;52.680;6.172;2023-02-05T12:53:09;9.10;99.90
53264;DHT22;39153;52.680;6.172;2023-02-05T12:56:02;9.30;99.90
53264;DHT22;39153;52.680;6.172;2023-02-05T12:58:37;9.50;99.90
53264;DHT22;39153;52.680;6.172;2023-02-05T13:01:32;9.50;99.90
53264;DHT22;39153;52.680;6.172;2023-02-05T13:03:59;9.30;99.90
53264;DHT22;39153;52.680;6.172;2023-02-05T13:06:30;9.10;99.90
53264;DHT22;39153;52.680;6.172;2023-02-05T13:12:01;9.50;99.90
53264;DHT22;39153;52.680;6.172;2023-02-05T13:14:38;9.50;99.90
53264;DHT22;39153;52.680;6.172;2023-02-05T13:17:18;9.60;99.90
53264;DHT22;39153;52.680;6.172;2023-02-05T13:25:24;9.70;99.90
53264;DHT22;39153;52.680;6.172;2023-02-05T13:33:48;9.80;99.90
53264;DHT22;39153;52.680;6.172;2023-02-05T14:00:39;9.20;99.90
53264;DHT22;39153;52.680;6.172;2023-02-05T14:03:06;9.30;99.90
53264;DHT22;39153;52.680;6.172;2023-02-05T14:05:37;9.30;99.90
53264;DHT22;39153;52.680;6.172;2023-02-05T14:08:05;9.30;99.90
53264;DHT22;39153;52.680;6.172;2023-02-05T14:10:39;9.40;99.90
53264;DHT22;39153;52.680;6.172;2023-02-05T14:15:42;9.30;99.90
53264;DHT22;39153;52.680;6.172;2023-02-05T14:18:46;9.20;99.90
53264;DHT22;39153;52.680;6.172;2023-02-05T14:24:02;9.10;99.90
53264;DHT22;39153;52.680;6.172;2023-02-05T14:26:51;9.10;99.90
53264;DHT22;39153;52.680;6.172;2023-02-05T14:29:40;9.10;99.90
53264;DHT22;39153;52.680;6.172;2023-02-05T14:35:04;9.10;99.90
53264;DHT22;39153;52.680;6.172;2023-02-05T14:37:34;9.00;99.90
53264;DHT22;39153;52.680;6.172;2023-02-05T14:43:16;8.90;99.90
53264;DHT22;39153;52.680;6.172;2023-02-05T14:45:48;8.90;99.90
53264;DHT22;39153;52.680;6.172;2023-02-05T14:48:41;9.00;99.90
53264;DHT22;39153;52.680;6.172;2023-02-05T14:51:08;8.90;99.90
53264;DHT22;39153;52.680;6.172;2023-02-05T14:53:42;8.90;99.90
53264;DHT22;39153;52.680;6.172;2023-02-05T14:56:23;8.90;99.90
53264;DHT22;39153;52.680;6.172;2023-02-05T14:58:57;8.90;99.90
53264;DHT22;39153;52.680;6.172;2023-02-05T15:04:02;8.90;99.90
53264;DHT22;39153;52.680;6.172;2023-02-05T15:06:35;8.80;99.90
53264;DHT22;39153;52.680;6.172;2023-02-05T15:09:17;8.80;99.90
53264;DHT22;39153;52.680;6.172;2023-02-05T15:12:19;8.70;99.90
53264;DHT22;39153;52.680;6.172;2023-02-05T15:14:52;8.60;99.90
53264;DHT22;39153;52.680;6.172;2023-02-05T15:20:18;8.50;99.90
53264;DHT22;39153;52.680;6.172;2023-02-05T15:22:54;8.50;99.90
53264;DHT22;39153;52.680;6.172;2023-02-05T15:25:26;8.50;99.90
53264;DHT22;39153;52.680;6.172;2023-02-05T15:27:58;8.50;99.90
53264;DHT22;39153;52.680;6.172;2023-02-05T15:30:27;8.50;99.90
53264;DHT22;39153;52.680;6.172;2023-02-05T15:33:08;8.40;99.90
53264;DHT22;39153;52.680;6.172;2023-02-05T15:35:41;8.40;99.90
53264;DHT22;39153;52.680;6.172;2023-02-05T15:38:24;8.40;99.90
53264;DHT22;39153;52.680;6.172;2023-02-05T15:40:52;8.30;99.90
53264;DHT22;39153;52.680;6.172;2023-02-05T15:43:23;8.30;99.90
53264;DHT22;39153;52.680;6.172;2023-02-05T15:45:51;8.20;99.90
53264;DHT22;39153;52.680;6.172;2023-02-05T15:48:25;8.20;99.90
53264;DHT22;39153;52.680;6.172;2023-02-05T15:53:35;8.20;99.90
53264;DHT22;39153;52.680;6.172;2023-02-05T15:56:24;8.10;99.90
53264;DHT22;39153;52.680;6.172;2023-02-05T15:58:59;8.10;99.90
53264;DHT22;39153;52.680;6.172;2023-02-05T16:03:54;8.10;99.90
53264;DHT22;39153;52.680;6.172;2023-02-05T16:06:20;8.00;99.90
53264;DHT22;39153;52.680;6.172;2023-02-05T16:08:48;8.00;99.90
53264;DHT22;39153;52.680;6.172;2023-02-05T16:11:26;8.00;99.90
53264;DHT22;39153;52.680;6.172;2023-02-05T16:16:36;7.90;99.90
53264;DHT22;39153;52.680;6.172;2023-02-05T16:19:07;7.80;99.90
53264;DHT22;39153;52.680;6.172;2023-02-05T16:21:41;7.80;99.90
53264;DHT22;39153;52.680;6.172;2023-02-05T16:24:34;7.70;99.90
53264;DHT22;39153;52.680;6.172;2023-02-05T16:27:05;7.60;99.90
53264;DHT22;39153;52.680;6.172;2023-02-05T16:29:38;7.60;99.90
53264;DHT22;39153;52.680;6.172;2023-02-05T16:32:19;7.60;99.90
53264;DHT22;39153;52.680;6.172;2023-02-05T16:34:46;7.50;99.90
53264;DHT22;39153;52.680;6.172;2023-02-05T16:37:15;7.50;99.90
53264;DHT22;39153;52.680;6.172;2023-02-05T16:39:45;7.50;99.90
53264;DHT22;39153;52.680;6.172;2023-02-05T16:42:30;7.50;99.90
53264;DHT22;39153;52.680;6.172;2023-02-05T16:47:35;7.50;99.90
53264;DHT22;39153;52.680;6.172;2023-02-05T16:50:34;7.50;99.90
53264;DHT22;39153;52.680;6.172;2023-02-05T16:53:02;7.40;99.90
53264;DHT22;39153;52.680;6.172;2023-02-05T16:58:02;7.20;99.90
53264;DHT22;39153;52.680;6.172;2023-02-05T17:00:29;7.20;99.90
53264;DHT22;39153;52.680;6.172;2023-02-05T17:02:57;7.10;99.90
53264;DHT22;39153;52.680;6.172;2023-02-05T17:05:28;7.00;99.90
53264;DHT22;39153;52.680;6.172;2023-02-05T17:08:03;7.00;99.90
53264;DHT22;39153;52.680;6.172;2023-02-05T17:10:30;6.90;99.90
53264;DHT22;39153;52.680;6.172;2023-02-05T17:13:00;6.90;99.90
53264;DHT22;39153;52.680;6.172;2023-02-05T17:15:34;6.80;99.90
53264;DHT22;39153;52.680;6.172;2023-02-05T17:18:24;6.70;99.90
53264;DHT22;39153;52.680;6.172;2023-02-05T17:20:51;6.70;99.90
53264;DHT22;39153;52.680;6.172;2023-02-05T17:23:36;6.60;99.90
53264;DHT22;39153;52.680;6.172;2023-02-05T17:26:02;6.50;99.90
53264;DHT22;39153;52.680;6.172;2023-02-05T17:28:28;6.50;99.90
53264;DHT22;39153;52.680;6.172;2023-02-05T17:30:55;6.60;99.90
53264;DHT22;39153;52.680;6.172;2023-02-05T17:33:26;6.50;99.90
53264;DHT22;39153;52.680;6.172;2023-02-05T17:35:52;6.40;99.90
53264;DHT22;39153;52.680;6.172;2023-02-05T17:38:18;6.50;99.90
53264;DHT22;39153;52.680;6.172;2023-02-05T17:40:50;6.40;99.90
53264;DHT22;39153;52.680;6.172;2023-02-05T17:43:36;6.30;99.90
53264;DHT22;39153;52.680;6.172;2023-02-05T17:46:04;6.30;99.90
53264;DHT22;39153;52.680;6.172;2023-02-05T17:48:33;6.30;99.90
53264;DHT22;39153;52.680;6.172;2023-02-05T17:50:59;6.30;99.90
53264;DHT22;39153;52.680;6.172;2023-02-05T17:53:25;6.20;99.90
53264;DHT22;39153;52.680;6.172;2023-02-05T17:55:50;6.10;99.90
53264;DHT22;39153;52.680;6.172;2023-02-05T17:58:16;6.10;99.90
53264;DHT22;39153;52.680;6.172;2023-02-05T18:00:42;6.10;99.90
53264;DHT22;39153;52.680;6.172;2023-02-05T18:03:08;6.10;99.90
53264;DHT22;39153;52.680;6.172;2023-02-05T18:05:33;6.00;99.90
53264;DHT22;39153;52.680;6.172;2023-02-05T18:07:59;6.00;99.90
53264;DHT22;39153;52.680;6.172;2023-02-05T18:10:30;6.00;99.90
53264;DHT22;39153;52.680;6.172;2023-02-05T18:12:59;5.90;99.90
53264;DHT22;39153;52.680;6.172;2023-02-05T18:15:25;6.00;99.90
53264;DHT22;39153;52.680;6.172;2023-02-05T18:17:52;5.90;99.90
53264;DHT22;39153;52.680;6.172;2023-02-05T18:20:19;5.90;99.90
53264;DHT22;39153;52.680;6.172;2023-02-05T18:22:46;5.80;99.90
53264;DHT22;39153;52.680;6.172;2023-02-05T18:25:11;5.90;99.90
53264;DHT22;39153;52.680;6.172;2023-02-05T18:27:38;5.80;99.90
53264;DHT22;39153;52.680;6.172;2023-02-05T18:30:04;5.80;99.90
53264;DHT22;39153;52.680;6.172;2023-02-05T18:32:30;5.70;99.90
53264;DHT22;39153;52.680;6.172;2023-02-05T18:34:56;5.70;99.90
53264;DHT22;39153;52.680;6.172;2023-02-05T18:37:22;5.60;99.90
53264;DHT22;39153;52.680;6.172;2023-02-05T18:39:48;5.60;99.90
53264;DHT22;39153;52.680;6.172;2023-02-05T18:42:13;5.50;99.90